»·PEaware :: SWA2143 KLAX-KLAS

SWA2143 :: KLAX-KLAS

FLIGHT INFORMATION

Flight Status: Arrived
Operator:
Southwest Airlines
More flights by this operator :: More flights under this callsign
Pilot: Teofilo H. (11827)
Aircraft: BOEING 737-800
(B738)
More flights by this aircraft type
Origin: KLAX Los Angeles Intl
United States
Destination: KLAS McCarran Intl
United States
More flights between these airports :: More routes between these airports
Route: ORCKA2 MISEN KEPEC6
File this flight plan on PilotEdge
Remarks: PBN / A1B1C1D1S1S2 DOF / 180611 REG / N806SB OPR / SWA PER / C RMK / TCAS SIMBRIEF
Altitude:
(Current/Filed)
35,000ft
Speed:
(Current/Filed)
458kts
Departed: 11-Jun-18 03:29 PM
Arrived: 11-Jun-18 04:15 PM
Distance/Time
Traveled:
205nm/0:46
Distance/Time
To Go:
Arrived

Flight Plot

Page will automatically refresh every two minutes.

Flight plan parsing failed; only flown route is shown


Map Options




Map Legend


Flown Route
Filed Route
Departure Airport
Arrival Airport
Navaid (VOR, NDB)
Fix

Horizontal Profiles

Position Reports

Time Latitude Longitude Heading Altitude Ground
Speed
11-Jun-18 15:04 33.946833 -118.400676 264 116ft 0kts
11-Jun-18 15:05 33.946833 -118.400676 264 116ft 0kts
11-Jun-18 15:06 33.946833 -118.400676 264 116ft 0kts
11-Jun-18 15:07 33.946833 -118.400676 264 116ft 0kts
11-Jun-18 15:08 33.946833 -118.400676 264 116ft 0kts
11-Jun-18 15:09 33.946833 -118.400676 264 116ft 0kts
11-Jun-18 15:10 33.946833 -118.400676 264 116ft 0kts
11-Jun-18 15:11 33.946833 -118.400676 264 116ft 0kts
11-Jun-18 15:12 33.946833 -118.400676 264 116ft 0kts
11-Jun-18 15:13 33.946833 -118.400676 264 116ft 0kts
11-Jun-18 15:14 33.946833 -118.400676 264 116ft 0kts
11-Jun-18 15:15 33.946833 -118.400676 264 116ft 0kts
11-Jun-18 15:16 33.946833 -118.400676 264 116ft 0kts
11-Jun-18 15:17 33.946833 -118.400676 264 116ft 0kts
11-Jun-18 15:18 33.946833 -118.400676 264 116ft 0kts
11-Jun-18 15:19 33.946833 -118.400676 264 116ft 0kts
11-Jun-18 15:20 33.946833 -118.400676 264 116ft 0kts
11-Jun-18 15:21 33.946880 -118.400410 257 116ft 2kts
11-Jun-18 15:22 33.946814 -118.400093 353 116ft 0kts
11-Jun-18 15:23 33.946656 -118.400026 270 116ft 0kts
11-Jun-18 15:24 33.946692 -118.400116 303 116ft 3kts
11-Jun-18 15:25 33.946900 -118.400183 1 116ft 0kts
11-Jun-18 15:26 33.947227 -118.400149 5 115ft 9kts
11-Jun-18 15:27 33.949147 -118.401398 306 115ft 0kts
11-Jun-18 15:28 33.949147 -118.401398 305 115ft 0kts
11-Jun-18 15:29 33.949741 -118.406195 262 119ft 82kts
11-Jun-18 15:30 33.945162 -118.458766 264 1664ft 201kts
11-Jun-18 15:31 33.925653 -118.521310 260 4134ft 236kts
11-Jun-18 15:32 33.898140 -118.603418 203 7578ft 277kts
11-Jun-18 15:33 33.850630 -118.549707 76 10663ft 310kts
11-Jun-18 15:34 33.907565 -118.465811 45 13486ft 338kts
11-Jun-18 15:35 33.966942 -118.375517 55 16393ft 354kts
11-Jun-18 15:36 34.022422 -118.277002 55 18890ft 369kts
11-Jun-18 15:37 34.080712 -118.173719 56 21131ft 383kts
11-Jun-18 15:38 34.139159 -118.069984 56 23104ft 394kts
11-Jun-18 15:39 34.201184 -117.959617 56 24961ft 404kts
11-Jun-18 15:40 34.264512 -117.846605 56 26617ft 414kts
11-Jun-18 15:41 34.329572 -117.730184 57 28057ft 424kts
11-Jun-18 15:42 34.397769 -117.612901 55 29484ft 431kts
11-Jun-18 15:43 34.467161 -117.496514 55 31195ft 427kts
11-Jun-18 15:44 34.535874 -117.380881 55 32741ft 423kts
11-Jun-18 15:45 34.603719 -117.266354 56 34080ft 421kts
11-Jun-18 15:46 34.671841 -117.150975 56 34910ft 429kts
11-Jun-18 15:47 34.743111 -117.029787 56 34922ft 455kts
11-Jun-18 15:48 34.817396 -116.903106 56 34848ft 459kts
11-Jun-18 15:49 34.890812 -116.777482 56 31541ft 463kts
11-Jun-18 15:50 34.963150 -116.651679 56 28885ft 444kts
11-Jun-18 15:51 35.031238 -116.530970 56 26499ft 426kts
11-Jun-18 15:52 35.097726 -116.412604 55 24093ft 419kts
11-Jun-18 15:53 35.173270 -116.314076 46 23913ft 418kts
11-Jun-18 15:54 35.254631 -116.212161 46 23167ft 418kts
11-Jun-18 15:55 35.332785 -116.113875 45 20464ft 397kts
11-Jun-18 15:56 35.408325 -116.018671 45 17797ft 386kts
11-Jun-18 15:57 35.480789 -115.926807 45 16677ft 370kts
11-Jun-18 15:58 35.552836 -115.835459 45 16304ft 368kts
11-Jun-18 15:59 35.623487 -115.756015 36 15258ft 329kts
11-Jun-18 16:00 35.695806 -115.688761 35 14267ft 324kts
11-Jun-18 16:01 35.766861 -115.622593 35 13270ft 319kts
11-Jun-18 16:02 35.836934 -115.557192 35 12997ft 318kts
11-Jun-18 16:03 35.907340 -115.491361 36 12911ft 317kts
11-Jun-18 16:04 35.974667 -115.428249 35 11870ft 291kts
11-Jun-18 16:05 36.024056 -115.357777 81 10875ft 278kts
11-Jun-18 16:06 36.021422 -115.265053 93 9921ft 276kts
11-Jun-18 16:07 36.015227 -115.171508 93 8921ft 272kts
11-Jun-18 16:08 36.009285 -115.080274 93 7972ft 261kts
11-Jun-18 16:09 36.004187 -114.991939 94 7161ft 253kts
11-Jun-18 16:10 36.037493 -114.928356 9 6012ft 236kts
11-Jun-18 16:11 36.074102 -114.975367 268 4674ft 204kts
11-Jun-18 16:12 36.073649 -115.038868 269 3364ft 164kts
11-Jun-18 16:13 36.073632 -115.092052 269 2591ft 151kts
11-Jun-18 16:14 36.073637 -115.140933 270 2088ft 70kts
11-Jun-18 16:15 36.075153 -115.146519 347 2104ft 0kts
11-Jun-18 16:16 36.077732 -115.147106 306 2103ft 18kts
11-Jun-18 16:17 36.080986 -115.148256 52 2099ft 5kts
11-Jun-18 16:18 36.081148 -115.147899 64 2097ft 0kts
11-Jun-18 16:19 36.081148 -115.147899 64 2097ft 0kts
11-Jun-18 16:20 36.081148 -115.147899 64 2097ft 0kts

Navigation Log

Ident Type
Flight plan parsing failed, navigation log unavailable